sensor_id;sensor_type;location;lat;lon;timestamp;temperature;humidity
24618;DHT22;12762;51.730;5.356;2022-07-10T00:00:49;15.30;60.00
24618;DHT22;12762;51.730;5.356;2022-07-10T00:03:16;15.30;60.20
24618;DHT22;12762;51.730;5.356;2022-07-10T00:05:43;15.30;60.40
24618;DHT22;12762;51.730;5.356;2022-07-10T00:08:10;15.30;60.50
24618;DHT22;12762;51.730;5.356;2022-07-10T00:10:36;15.30;60.60
24618;DHT22;12762;51.730;5.356;2022-07-10T00:13:03;15.30;60.70
24618;DHT22;12762;51.730;5.356;2022-07-10T00:15:30;15.30;60.60
24618;DHT22;12762;51.730;5.356;2022-07-10T00:17:59;15.30;60.80
24618;DHT22;12762;51.730;5.356;2022-07-10T00:20:26;15.30;61.00
24618;DHT22;12762;51.730;5.356;2022-07-10T00:22:53;15.40;61.10
24618;DHT22;12762;51.730;5.356;2022-07-10T00:25:26;15.40;61.20
24618;DHT22;12762;51.730;5.356;2022-07-10T00:27:54;15.40;61.30
24618;DHT22;12762;51.730;5.356;2022-07-10T00:30:20;15.40;61.40
24618;DHT22;12762;51.730;5.356;2022-07-10T00:32:47;15.50;61.50
24618;DHT22;12762;51.730;5.356;2022-07-10T00:35:14;15.50;61.70
24618;DHT22;12762;51.730;5.356;2022-07-10T00:37:41;15.50;61.80
24618;DHT22;12762;51.730;5.356;2022-07-10T00:40:08;15.50;61.80
24618;DHT22;12762;51.730;5.356;2022-07-10T00:42:35;15.50;61.70
24618;DHT22;12762;51.730;5.356;2022-07-10T00:45:02;15.50;61.80
24618;DHT22;12762;51.730;5.356;2022-07-10T00:47:29;15.50;61.70
24618;DHT22;12762;51.730;5.356;2022-07-10T00:49:56;15.40;61.50
24618;DHT22;12762;51.730;5.356;2022-07-10T00:52:23;15.40;61.50
24618;DHT22;12762;51.730;5.356;2022-07-10T00:54:50;15.40;61.80
24618;DHT22;12762;51.730;5.356;2022-07-10T00:57:18;15.30;61.90
24618;DHT22;12762;51.730;5.356;2022-07-10T00:59:45;15.30;62.10
24618;DHT22;12762;51.730;5.356;2022-07-10T01:02:14;15.30;62.30
24618;DHT22;12762;51.730;5.356;2022-07-10T01:04:42;15.20;62.40
24618;DHT22;12762;51.730;5.356;2022-07-10T01:07:09;15.20;62.60
24618;DHT22;12762;51.730;5.356;2022-07-10T01:09:37;15.20;62.80
24618;DHT22;12762;51.730;5.356;2022-07-10T01:12:04;15.10;63.00
24618;DHT22;12762;51.730;5.356;2022-07-10T01:14:31;15.10;63.10
24618;DHT22;12762;51.730;5.356;2022-07-10T01:17:01;15.10;63.10
24618;DHT22;12762;51.730;5.356;2022-07-10T01:19:28;15.10;63.10
24618;DHT22;12762;51.730;5.356;2022-07-10T01:21:55;15.00;63.10
24618;DHT22;12762;51.730;5.356;2022-07-10T01:24:22;15.00;63.20
24618;DHT22;12762;51.730;5.356;2022-07-10T01:26:49;15.00;63.20
24618;DHT22;12762;51.730;5.356;2022-07-10T01:29:16;15.00;63.20
24618;DHT22;12762;51.730;5.356;2022-07-10T01:31:42;14.90;63.30
24618;DHT22;12762;51.730;5.356;2022-07-10T01:34:10;14.90;63.30
24618;DHT22;12762;51.730;5.356;2022-07-10T01:36:37;14.90;63.40
24618;DHT22;12762;51.730;5.356;2022-07-10T01:39:05;14.90;63.60
24618;DHT22;12762;51.730;5.356;2022-07-10T01:41:33;14.90;63.80
24618;DHT22;12762;51.730;5.356;2022-07-10T01:44:00;14.80;63.60
24618;DHT22;12762;51.730;5.356;2022-07-10T01:46:27;14.80;63.70
24618;DHT22;12762;51.730;5.356;2022-07-10T01:48:54;14.80;64.00
24618;DHT22;12762;51.730;5.356;2022-07-10T01:51:21;14.80;64.10
24618;DHT22;12762;51.730;5.356;2022-07-10T01:53:48;14.70;64.20
24618;DHT22;12762;51.730;5.356;2022-07-10T01:56:16;14.70;64.50
24618;DHT22;12762;51.730;5.356;2022-07-10T01:58:43;14.70;64.70
24618;DHT22;12762;51.730;5.356;2022-07-10T02:01:10;14.70;64.80
24618;DHT22;12762;51.730;5.356;2022-07-10T02:03:38;14.70;64.90
24618;DHT22;12762;51.730;5.356;2022-07-10T02:06:23;14.60;64.90
24618;DHT22;12762;51.730;5.356;2022-07-10T02:08:50;14.60;64.80
24618;DHT22;12762;51.730;5.356;2022-07-10T02:11:17;14.60;65.00
24618;DHT22;12762;51.730;5.356;2022-07-10T02:13:44;14.60;65.10
24618;DHT22;12762;51.730;5.356;2022-07-10T02:16:11;14.60;65.10
24618;DHT22;12762;51.730;5.356;2022-07-10T02:18:38;14.60;65.30
24618;DHT22;12762;51.730;5.356;2022-07-10T02:21:07;14.60;65.50
24618;DHT22;12762;51.730;5.356;2022-07-10T02:23:34;14.60;65.60
24618;DHT22;12762;51.730;5.356;2022-07-10T02:26:01;14.60;65.70
24618;DHT22;12762;51.730;5.356;2022-07-10T02:28:28;14.60;65.80
24618;DHT22;12762;51.730;5.356;2022-07-10T02:30:56;14.70;66.80
24618;DHT22;12762;51.730;5.356;2022-07-10T02:33:23;14.70;65.90
24618;DHT22;12762;51.730;5.356;2022-07-10T02:35:50;14.70;66.00
24618;DHT22;12762;51.730;5.356;2022-07-10T02:38:17;14.70;66.00
24618;DHT22;12762;51.730;5.356;2022-07-10T02:40:43;14.70;66.10
24618;DHT22;12762;51.730;5.356;2022-07-10T02:43:10;14.70;66.20
24618;DHT22;12762;51.730;5.356;2022-07-10T02:45:37;14.70;66.20
24618;DHT22;12762;51.730;5.356;2022-07-10T02:48:12;14.70;66.30
24618;DHT22;12762;51.730;5.356;2022-07-10T02:50:38;14.70;66.20
24618;DHT22;12762;51.730;5.356;2022-07-10T02:53:05;14.70;67.20
24618;DHT22;12762;51.730;5.356;2022-07-10T02:55:32;14.70;66.40
24618;DHT22;12762;51.730;5.356;2022-07-10T02:57:59;14.70;66.60
24618;DHT22;12762;51.730;5.356;2022-07-10T03:00:27;14.60;66.50
24618;DHT22;12762;51.730;5.356;2022-07-10T03:02:54;14.60;66.70
24618;DHT22;12762;51.730;5.356;2022-07-10T03:05:22;14.60;66.80
24618;DHT22;12762;51.730;5.356;2022-07-10T03:07:49;14.60;67.80
24618;DHT22;12762;51.730;5.356;2022-07-10T03:10:16;14.50;67.00
24618;DHT22;12762;51.730;5.356;2022-07-10T03:12:43;14.50;67.10
24618;DHT22;12762;51.730;5.356;2022-07-10T03:15:10;14.50;67.20
24618;DHT22;12762;51.730;5.356;2022-07-10T03:17:37;14.50;67.30
24618;DHT22;12762;51.730;5.356;2022-07-10T03:20:05;14.50;67.40
24618;DHT22;12762;51.730;5.356;2022-07-10T03:22:32;14.50;67.40
24618;DHT22;12762;51.730;5.356;2022-07-10T03:24:59;14.60;67.60
24618;DHT22;12762;51.730;5.356;2022-07-10T03:27:26;14.60;67.60
24618;DHT22;12762;51.730;5.356;2022-07-10T03:29:53;14.60;67.60
24618;DHT22;12762;51.730;5.356;2022-07-10T03:32:20;14.60;67.60
24618;DHT22;12762;51.730;5.356;2022-07-10T03:34:47;14.60;67.70
24618;DHT22;12762;51.730;5.356;2022-07-10T03:37:14;14.60;67.70
24618;DHT22;12762;51.730;5.356;2022-07-10T03:39:40;14.60;67.80
24618;DHT22;12762;51.730;5.356;2022-07-10T03:42:07;14.60;67.80
24618;DHT22;12762;51.730;5.356;2022-07-10T03:44:34;14.60;67.80
24618;DHT22;12762;51.730;5.356;2022-07-10T03:47:01;14.50;67.80
24618;DHT22;12762;51.730;5.356;2022-07-10T03:49:28;14.60;68.00
24618;DHT22;12762;51.730;5.356;2022-07-10T03:52:02;14.60;68.10
24618;DHT22;12762;51.730;5.356;2022-07-10T03:54:29;14.60;68.20
24618;DHT22;12762;51.730;5.356;2022-07-10T03:56:57;14.60;68.00
24618;DHT22;12762;51.730;5.356;2022-07-10T03:59:43;14.70;68.20
24618;DHT22;12762;51.730;5.356;2022-07-10T04:02:10;14.70;68.00
24618;DHT22;12762;51.730;5.356;2022-07-10T04:04:37;14.70;68.10
24618;DHT22;12762;51.730;5.356;2022-07-10T04:07:04;14.80;68.10
24618;DHT22;12762;51.730;5.356;2022-07-10T04:09:31;14.80;68.20
24618;DHT22;12762;51.730;5.356;2022-07-10T04:11:58;14.90;68.40
24618;DHT22;12762;51.730;5.356;2022-07-10T04:14:25;14.80;68.20
24618;DHT22;12762;51.730;5.356;2022-07-10T04:16:52;14.90;68.40
24618;DHT22;12762;51.730;5.356;2022-07-10T04:19:18;14.90;68.40
24618;DHT22;12762;51.730;5.356;2022-07-10T04:21:45;15.00;68.50
24618;DHT22;12762;51.730;5.356;2022-07-10T04:24:12;15.00;68.50
24618;DHT22;12762;51.730;5.356;2022-07-10T04:26:39;15.00;68.40
24618;DHT22;12762;51.730;5.356;2022-07-10T04:29:05;15.10;68.60
24618;DHT22;12762;51.730;5.356;2022-07-10T04:31:32;15.10;68.60
24618;DHT22;12762;51.730;5.356;2022-07-10T04:33:59;15.10;68.60
24618;DHT22;12762;51.730;5.356;2022-07-10T04:36:26;15.20;68.60
24618;DHT22;12762;51.730;5.356;2022-07-10T04:38:53;15.20;68.60
24618;DHT22;12762;51.730;5.356;2022-07-10T04:41:19;15.30;68.70
24618;DHT22;12762;51.730;5.356;2022-07-10T04:43:46;15.30;68.60
24618;DHT22;12762;51.730;5.356;2022-07-10T04:46:13;15.40;68.60
24618;DHT22;12762;51.730;5.356;2022-07-10T04:48:42;15.40;68.60
24618;DHT22;12762;51.730;5.356;2022-07-10T04:51:09;15.40;68.60
24618;DHT22;12762;51.730;5.356;2022-07-10T04:53:36;15.50;68.60
24618;DHT22;12762;51.730;5.356;2022-07-10T04:56:03;15.50;68.70
24618;DHT22;12762;51.730;5.356;2022-07-10T04:58:30;15.60;68.70
24618;DHT22;12762;51.730;5.356;2022-07-10T05:00:57;15.70;68.80
24618;DHT22;12762;51.730;5.356;2022-07-10T05:03:24;15.70;68.70
24618;DHT22;12762;51.730;5.356;2022-07-10T05:05:51;15.80;69.50
24618;DHT22;12762;51.730;5.356;2022-07-10T05:08:18;15.80;68.70
24618;DHT22;12762;51.730;5.356;2022-07-10T05:10:45;15.90;68.70
24618;DHT22;12762;51.730;5.356;2022-07-10T05:13:12;16.00;68.60
24618;DHT22;12762;51.730;5.356;2022-07-10T05:15:39;16.10;68.60
24618;DHT22;12762;51.730;5.356;2022-07-10T05:18:06;16.10;68.50
24618;DHT22;12762;51.730;5.356;2022-07-10T05:20:33;16.20;68.40
24618;DHT22;12762;51.730;5.356;2022-07-10T05:23:01;16.20;68.30
24618;DHT22;12762;51.730;5.356;2022-07-10T05:25:28;16.20;68.30
24618;DHT22;12762;51.730;5.356;2022-07-10T05:27:57;16.20;68.30
24618;DHT22;12762;51.730;5.356;2022-07-10T05:30:24;16.20;68.30
24618;DHT22;12762;51.730;5.356;2022-07-10T05:32:50;16.30;68.40
24618;DHT22;12762;51.730;5.356;2022-07-10T05:35:17;16.30;68.50
24618;DHT22;12762;51.730;5.356;2022-07-10T05:37:44;16.30;68.50
24618;DHT22;12762;51.730;5.356;2022-07-10T05:40:11;16.30;68.40
24618;DHT22;12762;51.730;5.356;2022-07-10T05:42:38;16.40;68.60
24618;DHT22;12762;51.730;5.356;2022-07-10T05:45:06;16.50;68.50
24618;DHT22;12762;51.730;5.356;2022-07-10T05:47:33;16.50;68.40
24618;DHT22;12762;51.730;5.356;2022-07-10T05:50:00;16.60;68.20
24618;DHT22;12762;51.730;5.356;2022-07-10T05:52:27;16.70;68.20
24618;DHT22;12762;51.730;5.356;2022-07-10T05:54:56;16.80;68.10
24618;DHT22;12762;51.730;5.356;2022-07-10T05:57:23;16.90;68.10
24618;DHT22;12762;51.730;5.356;2022-07-10T05:59:50;17.10;67.90
24618;DHT22;12762;51.730;5.356;2022-07-10T06:02:17;17.20;68.40
24618;DHT22;12762;51.730;5.356;2022-07-10T06:04:50;17.30;67.40
24618;DHT22;12762;51.730;5.356;2022-07-10T06:07:18;17.40;67.10
24618;DHT22;12762;51.730;5.356;2022-07-10T06:09:45;17.50;66.90
24618;DHT22;12762;51.730;5.356;2022-07-10T06:12:11;17.60;66.80
24618;DHT22;12762;51.730;5.356;2022-07-10T06:14:38;17.60;66.70
24618;DHT22;12762;51.730;5.356;2022-07-10T06:17:05;17.70;66.70
24618;DHT22;12762;51.730;5.356;2022-07-10T06:19:32;17.80;66.50
24618;DHT22;12762;51.730;5.356;2022-07-10T06:21:59;17.80;66.40
24618;DHT22;12762;51.730;5.356;2022-07-10T06:24:45;17.90;66.30
24618;DHT22;12762;51.730;5.356;2022-07-10T06:27:12;18.00;66.50
24618;DHT22;12762;51.730;5.356;2022-07-10T06:29:39;18.10;66.30
24618;DHT22;12762;51.730;5.356;2022-07-10T06:32:06;18.20;66.10
24618;DHT22;12762;51.730;5.356;2022-07-10T06:34:33;18.30;65.80
24618;DHT22;12762;51.730;5.356;2022-07-10T06:37:00;18.40;65.70
24618;DHT22;12762;51.730;5.356;2022-07-10T06:39:31;18.50;65.70
24618;DHT22;12762;51.730;5.356;2022-07-10T06:42:01;18.60;65.50
24618;DHT22;12762;51.730;5.356;2022-07-10T06:44:28;18.60;65.40
24618;DHT22;12762;51.730;5.356;2022-07-10T06:46:56;18.70;65.30
24618;DHT22;12762;51.730;5.356;2022-07-10T06:49:42;18.80;65.20
24618;DHT22;12762;51.730;5.356;2022-07-10T06:52:09;18.90;65.20
24618;DHT22;12762;51.730;5.356;2022-07-10T06:54:37;19.10;65.30
24618;DHT22;12762;51.730;5.356;2022-07-10T06:57:04;19.40;65.10
24618;DHT22;12762;51.730;5.356;2022-07-10T06:59:32;19.80;65.30
24618;DHT22;12762;51.730;5.356;2022-07-10T07:01:58;20.50;65.10
24618;DHT22;12762;51.730;5.356;2022-07-10T07:04:25;21.30;63.50
24618;DHT22;12762;51.730;5.356;2022-07-10T07:06:52;21.70;61.90
24618;DHT22;12762;51.730;5.356;2022-07-10T07:09:19;22.00;61.20
24618;DHT22;12762;51.730;5.356;2022-07-10T07:11:46;22.40;61.00
24618;DHT22;12762;51.730;5.356;2022-07-10T07:14:13;22.90;59.90
24618;DHT22;12762;51.730;5.356;2022-07-10T07:16:40;23.20;59.00
24618;DHT22;12762;51.730;5.356;2022-07-10T07:19:13;23.40;58.10
24618;DHT22;12762;51.730;5.356;2022-07-10T07:21:44;23.40;57.60
24618;DHT22;12762;51.730;5.356;2022-07-10T07:24:30;23.20;57.60
24618;DHT22;12762;51.730;5.356;2022-07-10T07:26:56;23.00;57.40
24618;DHT22;12762;51.730;5.356;2022-07-10T07:29:23;22.70;57.70
24618;DHT22;12762;51.730;5.356;2022-07-10T07:31:50;22.40;57.90
24618;DHT22;12762;51.730;5.356;2022-07-10T07:34:17;22.00;58.30
24618;DHT22;12762;51.730;5.356;2022-07-10T07:36:44;21.70;58.70
24618;DHT22;12762;51.730;5.356;2022-07-10T07:39:10;21.50;59.00
24618;DHT22;12762;51.730;5.356;2022-07-10T07:41:37;21.40;59.70
24618;DHT22;12762;51.730;5.356;2022-07-10T07:44:04;21.40;60.00
24618;DHT22;12762;51.730;5.356;2022-07-10T07:46:31;21.50;59.70
24618;DHT22;12762;51.730;5.356;2022-07-10T07:48:58;21.50;59.70
24618;DHT22;12762;51.730;5.356;2022-07-10T07:51:25;21.60;59.70
24618;DHT22;12762;51.730;5.356;2022-07-10T07:53:52;21.70;59.90
24618;DHT22;12762;51.730;5.356;2022-07-10T07:56:18;21.80;59.60
24618;DHT22;12762;51.730;5.356;2022-07-10T07:58:45;21.80;59.40
24618;DHT22;12762;51.730;5.356;2022-07-10T08:01:12;21.80;59.30
24618;DHT22;12762;51.730;5.356;2022-07-10T08:03:39;21.70;59.50
24618;DHT22;12762;51.730;5.356;2022-07-10T08:06:26;21.80;59.70
24618;DHT22;12762;51.730;5.356;2022-07-10T08:08:52;21.80;59.50
24618;DHT22;12762;51.730;5.356;2022-07-10T08:11:19;21.80;59.50
24618;DHT22;12762;51.730;5.356;2022-07-10T08:13:46;21.80;59.40
24618;DHT22;12762;51.730;5.356;2022-07-10T08:16:13;21.70;59.30
24618;DHT22;12762;51.730;5.356;2022-07-10T08:18:40;21.80;59.60
24618;DHT22;12762;51.730;5.356;2022-07-10T08:21:07;22.00;59.80
24618;DHT22;12762;51.730;5.356;2022-07-10T08:23:34;22.10;59.60
24618;DHT22;12762;51.730;5.356;2022-07-10T08:26:01;22.20;59.50
24618;DHT22;12762;51.730;5.356;2022-07-10T08:28:28;22.20;59.00
24618;DHT22;12762;51.730;5.356;2022-07-10T08:30:55;22.20;58.90
24618;DHT22;12762;51.730;5.356;2022-07-10T08:33:22;22.10;59.00
24618;DHT22;12762;51.730;5.356;2022-07-10T08:35:48;22.20;59.00
24618;DHT22;12762;51.730;5.356;2022-07-10T08:38:15;22.30;59.00
24618;DHT22;12762;51.730;5.356;2022-07-10T08:40:43;22.30;58.80
24618;DHT22;12762;51.730;5.356;2022-07-10T08:43:10;22.30;58.90
24618;DHT22;12762;51.730;5.356;2022-07-10T08:45:40;22.40;58.60
24618;DHT22;12762;51.730;5.356;2022-07-10T08:48:09;22.40;58.60
24618;DHT22;12762;51.730;5.356;2022-07-10T08:50:43;22.40;58.50
24618;DHT22;12762;51.730;5.356;2022-07-10T08:53:30;22.30;58.60
24618;DHT22;12762;51.730;5.356;2022-07-10T08:55:58;22.30;58.90
24618;DHT22;12762;51.730;5.356;2022-07-10T08:58:26;22.40;59.20
24618;DHT22;12762;51.730;5.356;2022-07-10T09:00:53;22.50;59.10
24618;DHT22;12762;51.730;5.356;2022-07-10T09:03:20;22.50;58.70
24618;DHT22;12762;51.730;5.356;2022-07-10T09:05:47;22.60;58.80
24618;DHT22;12762;51.730;5.356;2022-07-10T09:08:25;22.70;58.90
24618;DHT22;12762;51.730;5.356;2022-07-10T09:13:56;23.00;58.10
24618;DHT22;12762;51.730;5.356;2022-07-10T09:16:28;22.90;57.80
24618;DHT22;12762;51.730;5.356;2022-07-10T09:18:56;22.80;57.90
24618;DHT22;12762;51.730;5.356;2022-07-10T09:21:23;22.70;58.10
24618;DHT22;12762;51.730;5.356;2022-07-10T09:23:58;22.70;59.00
24618;DHT22;12762;51.730;5.356;2022-07-10T09:26:26;22.80;58.60
24618;DHT22;12762;51.730;5.356;2022-07-10T09:29:09;23.00;58.10
24618;DHT22;12762;51.730;5.356;2022-07-10T09:31:53;23.10;57.80
24618;DHT22;12762;51.730;5.356;2022-07-10T09:34:37;23.10;57.60
24618;DHT22;12762;51.730;5.356;2022-07-10T09:37:24;23.10;57.50
24618;DHT22;12762;51.730;5.356;2022-07-10T09:40:02;23.00;57.20
24618;DHT22;12762;51.730;5.356;2022-07-10T09:42:35;23.10;57.20
24618;DHT22;12762;51.730;5.356;2022-07-10T09:47:56;22.90;56.80
24618;DHT22;12762;51.730;5.356;2022-07-10T09:50:33;22.60;57.00
24618;DHT22;12762;51.730;5.356;2022-07-10T09:53:04;22.30;57.40
24618;DHT22;12762;51.730;5.356;2022-07-10T09:55:34;22.20;57.80
24618;DHT22;12762;51.730;5.356;2022-07-10T09:58:03;22.10;58.20
24618;DHT22;12762;51.730;5.356;2022-07-10T10:00:35;22.30;58.50
24618;DHT22;12762;51.730;5.356;2022-07-10T10:03:05;22.60;58.30
24618;DHT22;12762;51.730;5.356;2022-07-10T10:05:39;22.90;58.30
24618;DHT22;12762;51.730;5.356;2022-07-10T10:10:48;23.50;57.20
24618;DHT22;12762;51.730;5.356;2022-07-10T10:13:21;23.60;56.80
24618;DHT22;12762;51.730;5.356;2022-07-10T10:15:50;23.60;56.80
24618;DHT22;12762;51.730;5.356;2022-07-10T10:18:18;23.80;57.10
24618;DHT22;12762;51.730;5.356;2022-07-10T10:20:46;24.10;56.70
24618;DHT22;12762;51.730;5.356;2022-07-10T10:23:16;24.20;56.20
24618;DHT22;12762;51.730;5.356;2022-07-10T10:25:57;24.30;55.50
24618;DHT22;12762;51.730;5.356;2022-07-10T10:28:25;24.30;55.40
24618;DHT22;12762;51.730;5.356;2022-07-10T10:30:59;24.20;55.30
24618;DHT22;12762;51.730;5.356;2022-07-10T10:36:05;24.10;55.90
24618;DHT22;12762;51.730;5.356;2022-07-10T10:41:25;24.20;55.50
24618;DHT22;12762;51.730;5.356;2022-07-10T10:46:35;24.10;55.80
24618;DHT22;12762;51.730;5.356;2022-07-10T10:49:06;24.10;55.70
24618;DHT22;12762;51.730;5.356;2022-07-10T10:51:59;24.10;55.70
24618;DHT22;12762;51.730;5.356;2022-07-10T10:54:27;24.30;55.80
24618;DHT22;12762;51.730;5.356;2022-07-10T10:57:15;24.50;55.50
24618;DHT22;12762;51.730;5.356;2022-07-10T10:59:55;24.60;55.40
24618;DHT22;12762;51.730;5.356;2022-07-10T11:02:32;24.70;55.20
24618;DHT22;12762;51.730;5.356;2022-07-10T11:08:00;24.90;55.10
24618;DHT22;12762;51.730;5.356;2022-07-10T11:10:38;24.90;54.90
24618;DHT22;12762;51.730;5.356;2022-07-10T11:13:17;25.00;54.70
24618;DHT22;12762;51.730;5.356;2022-07-10T11:15:48;24.90;54.60
24618;DHT22;12762;51.730;5.356;2022-07-10T11:18:19;24.90;54.60
24618;DHT22;12762;51.730;5.356;2022-07-10T11:20:51;24.90;54.40
24618;DHT22;12762;51.730;5.356;2022-07-10T11:26:06;24.80;54.60
24618;DHT22;12762;51.730;5.356;2022-07-10T11:28:38;24.90;54.50
24618;DHT22;12762;51.730;5.356;2022-07-10T11:31:08;25.00;54.30
24618;DHT22;12762;51.730;5.356;2022-07-10T11:33:43;25.00;54.10
24618;DHT22;12762;51.730;5.356;2022-07-10T11:36:15;24.90;54.20
24618;DHT22;12762;51.730;5.356;2022-07-10T11:38:45;24.80;54.30
24618;DHT22;12762;51.730;5.356;2022-07-10T11:41:16;24.80;54.90
24618;DHT22;12762;51.730;5.356;2022-07-10T11:43:50;24.80;54.20
24618;DHT22;12762;51.730;5.356;2022-07-10T11:46:18;24.80;54.20
24618;DHT22;12762;51.730;5.356;2022-07-10T11:48:48;24.70;54.20
24618;DHT22;12762;51.730;5.356;2022-07-10T11:56:26;24.50;54.50
24618;DHT22;12762;51.730;5.356;2022-07-10T11:59:05;24.50;54.80
24618;DHT22;12762;51.730;5.356;2022-07-10T12:01:35;24.70;54.50
24618;DHT22;12762;51.730;5.356;2022-07-10T12:04:04;24.80;54.40
24618;DHT22;12762;51.730;5.356;2022-07-10T12:06:33;24.90;54.30
24618;DHT22;12762;51.730;5.356;2022-07-10T12:09:05;24.90;53.90
24618;DHT22;12762;51.730;5.356;2022-07-10T12:11:33;24.90;53.90
24618;DHT22;12762;51.730;5.356;2022-07-10T12:14:19;25.00;53.90
24618;DHT22;12762;51.730;5.356;2022-07-10T12:16:51;25.20;54.00
24618;DHT22;12762;51.730;5.356;2022-07-10T12:19:36;25.20;53.60
24618;DHT22;12762;51.730;5.356;2022-07-10T12:22:04;25.20;53.30
24618;DHT22;12762;51.730;5.356;2022-07-10T12:24:32;25.10;53.30
24618;DHT22;12762;51.730;5.356;2022-07-10T12:26:59;25.10;53.80
24618;DHT22;12762;51.730;5.356;2022-07-10T12:29:28;25.10;53.60
24618;DHT22;12762;51.730;5.356;2022-07-10T12:31:59;25.20;53.50
24618;DHT22;12762;51.730;5.356;2022-07-10T12:34:39;25.30;53.00
24618;DHT22;12762;51.730;5.356;2022-07-10T12:37:11;25.40;53.10
24618;DHT22;12762;51.730;5.356;2022-07-10T12:39:52;25.60;53.10
24618;DHT22;12762;51.730;5.356;2022-07-10T12:42:31;25.70;52.70
24618;DHT22;12762;51.730;5.356;2022-07-10T12:45:10;25.70;52.30
24618;DHT22;12762;51.730;5.356;2022-07-10T12:47:47;25.70;52.30
24618;DHT22;12762;51.730;5.356;2022-07-10T12:50:15;25.80;52.20
24618;DHT22;12762;51.730;5.356;2022-07-10T12:52:44;25.80;51.80
24618;DHT22;12762;51.730;5.356;2022-07-10T12:55:18;25.90;52.10
24618;DHT22;12762;51.730;5.356;2022-07-10T12:57:52;26.20;52.50
24618;DHT22;12762;51.730;5.356;2022-07-10T13:00:45;26.40;51.30
24618;DHT22;12762;51.730;5.356;2022-07-10T13:03:19;26.60;51.50
24618;DHT22;12762;51.730;5.356;2022-07-10T13:05:51;26.70;50.80
24618;DHT22;12762;51.730;5.356;2022-07-10T13:08:21;26.70;50.90
24618;DHT22;12762;51.730;5.356;2022-07-10T13:10:52;26.70;51.00
24618;DHT22;12762;51.730;5.356;2022-07-10T13:13:19;26.80;50.60
24618;DHT22;12762;51.730;5.356;2022-07-10T13:15:47;26.80;50.50
24618;DHT22;12762;51.730;5.356;2022-07-10T13:18:21;26.90;50.40
24618;DHT22;12762;51.730;5.356;2022-07-10T13:20:49;26.90;50.30
24618;DHT22;12762;51.730;5.356;2022-07-10T13:23:25;26.90;50.60
24618;DHT22;12762;51.730;5.356;2022-07-10T13:25:53;27.10;50.30
24618;DHT22;12762;51.730;5.356;2022-07-10T13:28:20;27.20;49.70
24618;DHT22;12762;51.730;5.356;2022-07-10T13:30:47;27.20;49.50
24618;DHT22;12762;51.730;5.356;2022-07-10T13:33:14;27.20;49.40
24618;DHT22;12762;51.730;5.356;2022-07-10T13:35:41;27.20;49.40
24618;DHT22;12762;51.730;5.356;2022-07-10T13:38:08;27.20;49.30
24618;DHT22;12762;51.730;5.356;2022-07-10T13:40:42;27.10;49.20
24618;DHT22;12762;51.730;5.356;2022-07-10T13:43:10;27.20;49.50
24618;DHT22;12762;51.730;5.356;2022-07-10T13:45:41;27.20;49.60
24618;DHT22;12762;51.730;5.356;2022-07-10T13:48:14;27.40;50.00
24618;DHT22;12762;51.730;5.356;2022-07-10T13:50:43;27.50;48.60
24618;DHT22;12762;51.730;5.356;2022-07-10T13:53:10;27.40;48.40
24618;DHT22;12762;51.730;5.356;2022-07-10T13:55:37;27.20;48.50
24618;DHT22;12762;51.730;5.356;2022-07-10T13:58:05;27.10;49.10
24618;DHT22;12762;51.730;5.356;2022-07-10T14:00:32;27.10;49.40
24618;DHT22;12762;51.730;5.356;2022-07-10T14:02:58;27.30;48.80
24618;DHT22;12762;51.730;5.356;2022-07-10T14:05:27;27.50;48.50
24618;DHT22;12762;51.730;5.356;2022-07-10T14:07:54;27.60;48.10
24618;DHT22;12762;51.730;5.356;2022-07-10T14:10:22;27.80;48.00
24618;DHT22;12762;51.730;5.356;2022-07-10T14:12:48;27.90;48.00
24618;DHT22;12762;51.730;5.356;2022-07-10T14:15:16;27.90;47.80
24618;DHT22;12762;51.730;5.356;2022-07-10T14:17:43;27.90;47.50
24618;DHT22;12762;51.730;5.356;2022-07-10T14:20:12;27.80;47.50
24618;DHT22;12762;51.730;5.356;2022-07-10T14:22:39;27.80;47.20
24618;DHT22;12762;51.730;5.356;2022-07-10T14:25:07;27.90;47.30
24618;DHT22;12762;51.730;5.356;2022-07-10T14:27:37;27.80;46.90
24618;DHT22;12762;51.730;5.356;2022-07-10T14:30:05;27.80;47.40
24618;DHT22;12762;51.730;5.356;2022-07-10T14:32:34;27.80;47.20
24618;DHT22;12762;51.730;5.356;2022-07-10T14:35:01;27.80;47.00
24618;DHT22;12762;51.730;5.356;2022-07-10T14:37:28;27.80;46.90
24618;DHT22;12762;51.730;5.356;2022-07-10T14:39:54;27.70;46.50
24618;DHT22;12762;51.730;5.356;2022-07-10T14:42:21;27.70;46.70
24618;DHT22;12762;51.730;5.356;2022-07-10T14:44:48;27.50;46.60
24618;DHT22;12762;51.730;5.356;2022-07-10T14:47:15;27.40;46.80
24618;DHT22;12762;51.730;5.356;2022-07-10T14:49:43;27.40;47.20
24618;DHT22;12762;51.730;5.356;2022-07-10T14:52:09;27.50;47.10
24618;DHT22;12762;51.730;5.356;2022-07-10T14:54:36;27.50;46.80
24618;DHT22;12762;51.730;5.356;2022-07-10T14:57:04;27.50;46.70
24618;DHT22;12762;51.730;5.356;2022-07-10T14:59:31;27.50;47.00
24618;DHT22;12762;51.730;5.356;2022-07-10T15:01:57;27.50;46.90
24618;DHT22;12762;51.730;5.356;2022-07-10T15:04:27;27.60;46.80
24618;DHT22;12762;51.730;5.356;2022-07-10T15:06:54;27.70;46.70
24618;DHT22;12762;51.730;5.356;2022-07-10T15:09:20;27.70;46.50
24618;DHT22;12762;51.730;5.356;2022-07-10T15:11:48;27.70;46.50
24618;DHT22;12762;51.730;5.356;2022-07-10T15:14:14;27.80;46.70
24618;DHT22;12762;51.730;5.356;2022-07-10T15:16:41;27.80;46.40
24618;DHT22;12762;51.730;5.356;2022-07-10T15:19:09;27.80;46.30
24618;DHT22;12762;51.730;5.356;2022-07-10T15:21:37;27.90;47.00
24618;DHT22;12762;51.730;5.356;2022-07-10T15:24:04;27.80;46.00
24618;DHT22;12762;51.730;5.356;2022-07-10T15:26:31;27.70;46.30
24618;DHT22;12762;51.730;5.356;2022-07-10T15:28:58;27.60;46.10
24618;DHT22;12762;51.730;5.356;2022-07-10T15:31:25;27.50;46.40
24618;DHT22;12762;51.730;5.356;2022-07-10T15:33:53;27.40;46.40
24618;DHT22;12762;51.730;5.356;2022-07-10T15:36:19;27.40;46.70
24618;DHT22;12762;51.730;5.356;2022-07-10T15:38:48;27.40;47.00
24618;DHT22;12762;51.730;5.356;2022-07-10T15:41:15;27.40;47.20
24618;DHT22;12762;51.730;5.356;2022-07-10T15:43:42;27.50;47.20
24618;DHT22;12762;51.730;5.356;2022-07-10T15:46:10;27.60;47.20
24618;DHT22;12762;51.730;5.356;2022-07-10T15:48:39;27.60;47.10
24618;DHT22;12762;51.730;5.356;2022-07-10T15:51:06;27.60;47.20
24618;DHT22;12762;51.730;5.356;2022-07-10T15:53:33;27.50;47.10
24618;DHT22;12762;51.730;5.356;2022-07-10T15:56:00;27.50;47.30
24618;DHT22;12762;51.730;5.356;2022-07-10T15:58:29;27.50;48.10
24618;DHT22;12762;51.730;5.356;2022-07-10T16:00:56;27.50;47.40
24618;DHT22;12762;51.730;5.356;2022-07-10T16:03:23;27.40;47.30
24618;DHT22;12762;51.730;5.356;2022-07-10T16:05:50;27.30;47.60
24618;DHT22;12762;51.730;5.356;2022-07-10T16:08:17;27.30;47.70